Time;durP1;ratioP1;P1;durP2;ratioP2;P2;SDS_P1;SDS_P2;PMS_P1;PMS_P2;Temp;Humidity;BMP_temperature;BMP_pressure;BME280_temperature;BME280_humidity;BME280_pressure;Samples;Min_cycle;Max_cycle;Signal;HPM_P1;HPM_P2
2022/06/13 00:02:25;;;;;;;;;;;12.60;99.90;;;;;;5054249;28;19916;-56
2022/06/13 00:04:50;;;;;;;;;;;12.80;99.90;;;;;;5070945;28;20096;-56
2022/06/13 00:07:16;;;;;;;;;;;12.90;99.90;;;;;;5068187;28;19935;-56
2022/06/13 00:09:41;;;;;;;;;;;12.80;99.90;;;;;;5063815;28;19913;-56
2022/06/13 00:12:07;;;;;;;;;;;12.60;99.90;;;;;;5075907;28;19912;-56
2022/06/13 00:14:32;;;;;;;;;;;12.50;99.90;;;;;;5061360;28;19983;-57
2022/06/13 00:16:58;;;;;;;;;;;12.30;99.90;;;;;;5067653;28;19917;-57
2022/06/13 00:19:23;;;;;;;;;;;12.10;99.90;;;;;;5067820;28;19913;-56
2022/06/13 00:21:49;;;;;;;;;;;11.90;99.90;;;;;;5062584;28;19920;-57
2022/06/13 00:24:14;;;;;;;;;;;11.90;99.90;;;;;;5056748;28;19959;-57
2022/06/13 00:26:40;;;;;;;;;;;11.70;99.90;;;;;;5059546;28;20342;-56
2022/06/13 00:29:05;;;;;;;;;;;11.80;99.90;;;;;;5064431;28;19912;-56
2022/06/13 00:31:31;;;;;;;;;;;11.70;99.90;;;;;;5061400;28;19917;-56
2022/06/13 00:33:57;;;;;;;;;;;11.70;99.90;;;;;;5055236;28;19932;-57
2022/06/13 00:36:23;;;;;;;;;;;11.60;99.90;;;;;;5064123;28;20486;-56
2022/06/13 00:38:49;;;;;;;;;;;11.60;99.90;;;;;;5057266;28;19917;-57
2022/06/13 00:41:15;;;;;;;;;;;11.80;99.90;;;;;;5060759;28;20341;-56
2022/06/13 00:43:42;;;;;;;;;;;12.00;99.90;;;;;;5063544;28;20422;-56
2022/06/13 00:46:21;;;;;;;;;;;11.80;99.90;;;;;;5067781;28;19990;-56
2022/06/13 00:48:47;;;;;;;;;;;11.60;99.90;;;;;;5065599;28;19912;-56
2022/06/13 00:51:14;;;;;;;;;;;11.60;99.90;;;;;;5056665;28;19909;-57
2022/06/13 00:53:40;;;;;;;;;;;11.50;99.90;;;;;;5060861;28;19908;-56
2022/06/13 00:56:16;;;;;;;;;;;11.50;99.90;;;;;;5062312;28;20396;-56
2022/06/13 00:58:45;;;;;;;;;;;11.40;99.90;;;;;;5064634;28;20394;-57
2022/06/13 01:01:10;;;;;;;;;;;11.50;99.90;;;;;;5053302;28;19908;-57
2022/06/13 01:03:36;;;;;;;;;;;11.40;99.90;;;;;;5061426;28;19909;-57
2022/06/13 01:06:04;;;;;;;;;;;11.20;99.90;;;;;;5060168;28;19916;-57
2022/06/13 01:08:31;;;;;;;;;;;11.20;99.90;;;;;;5061030;28;19916;-57
2022/06/13 01:11:17;;;;;;;;;;;11.30;99.90;;;;;;5056587;28;19919;-57
2022/06/13 01:13:45;;;;;;;;;;;11.60;99.90;;;;;;5061802;28;19944;-57
2022/06/13 01:16:19;;;;;;;;;;;11.50;99.90;;;;;;5062070;28;19912;-57
2022/06/13 01:18:56;;;;;;;;;;;11.30;99.90;;;;;;5062300;28;19912;-57
2022/06/13 01:21:27;;;;;;;;;;;11.20;99.90;;;;;;5057791;28;20553;-57
2022/06/13 01:23:53;;;;;;;;;;;11.00;99.90;;;;;;5064393;28;20579;-57
2022/06/13 01:26:21;;;;;;;;;;;10.90;99.90;;;;;;5064389;28;19909;-57
2022/06/13 01:29:05;;;;;;;;;;;10.70;99.90;;;;;;5065224;28;19924;-56
2022/06/13 01:31:36;;;;;;;;;;;10.50;99.90;;;;;;5071038;28;20072;-56
2022/06/13 01:34:04;;;;;;;;;;;10.50;99.90;;;;;;5060088;28;19971;-56
2022/06/13 01:36:33;;;;;;;;;;;10.30;99.90;;;;;;5064995;28;19920;-57
2022/06/13 01:39:16;;;;;;;;;;;10.20;99.90;;;;;;5058812;28;19917;-56
2022/06/13 01:42:05;;;;;;;;;;;10.20;99.90;;;;;;5063045;28;19917;-56
2022/06/13 01:44:39;;;;;;;;;;;10.60;99.90;;;;;;5061877;28;19912;-57
2022/06/13 01:47:30;;;;;;;;;;;10.60;99.90;;;;;;5063264;28;19935;-57
2022/06/13 01:50:04;;;;;;;;;;;10.80;99.90;;;;;;5044120;28;20005;-56
2022/06/13 01:52:30;;;;;;;;;;;10.60;99.90;;;;;;5058213;28;20017;-56
2022/06/13 01:55:04;;;;;;;;;;;11.10;99.90;;;;;;5063332;28;20429;-57
2022/06/13 01:57:36;;;;;;;;;;;11.10;99.90;;;;;;5059440;28;19913;-56
2022/06/13 02:00:04;;;;;;;;;;;11.00;99.90;;;;;;5054931;28;20006;-56
2022/06/13 02:02:51;;;;;;;;;;;10.80;99.90;;;;;;5053579;28;19912;-56
2022/06/13 02:05:28;;;;;;;;;;;10.70;99.90;;;;;;5063554;28;19952;-57
2022/06/13 02:07:57;;;;;;;;;;;10.50;99.90;;;;;;5057111;28;19934;-56
2022/06/13 02:10:26;;;;;;;;;;;10.30;99.90;;;;;;5063472;28;19912;-56
2022/06/13 02:12:54;;;;;;;;;;;10.20;99.90;;;;;;5058368;28;19959;-56
2022/06/13 02:15:22;;;;;;;;;;;10.20;99.90;;;;;;5060360;28;19912;-57
2022/06/13 02:17:54;;;;;;;;;;;10.30;99.90;;;;;;5059851;28;19916;-57
2022/06/13 02:20:22;;;;;;;;;;;10.30;99.90;;;;;;5066171;28;20344;-56
2022/06/13 02:22:53;;;;;;;;;;;10.40;99.90;;;;;;5062367;28;19923;-56
2022/06/13 02:25:21;;;;;;;;;;;10.40;99.90;;;;;;5061322;28;19996;-57
2022/06/13 02:27:51;;;;;;;;;;;10.60;99.90;;;;;;5070123;28;19979;-57
2022/06/13 02:30:18;;;;;;;;;;;10.50;99.90;;;;;;5073258;28;19954;-57
2022/06/13 02:32:52;;;;;;;;;;;10.60;99.90;;;;;;5062479;28;19920;-57
2022/06/13 02:35:27;;;;;;;;;;;10.70;99.90;;;;;;5058373;28;20023;-56
2022/06/13 02:37:52;;;;;;;;;;;10.50;99.90;;;;;;5068068;28;20003;-57
2022/06/13 02:40:24;;;;;;;;;;;10.40;99.90;;;;;;5069662;28;20042;-56
2022/06/13 02:42:57;;;;;;;;;;;10.50;99.90;;;;;;5064487;28;19912;-56
2022/06/13 02:45:25;;;;;;;;;;;10.40;99.90;;;;;;5057955;28;19939;-57
2022/06/13 02:48:05;;;;;;;;;;;10.40;99.90;;;;;;5070254;28;20284;-57
2022/06/13 02:50:36;;;;;;;;;;;10.20;99.90;;;;;;5061367;28;19912;-56
2022/06/13 02:53:06;;;;;;;;;;;10.10;99.90;;;;;;5066428;28;19960;-57
2022/06/13 02:55:40;;;;;;;;;;;10.20;99.90;;;;;;5066566;28;19928;-56
2022/06/13 02:58:06;;;;;;;;;;;10.30;99.90;;;;;;5064311;28;19935;-56
2022/06/13 03:00:54;;;;;;;;;;;10.10;99.90;;;;;;5064184;28;19916;-57
2022/06/13 03:03:26;;;;;;;;;;;9.90;99.90;;;;;;5058860;28;19959;-56
2022/06/13 03:06:07;;;;;;;;;;;9.80;99.90;;;;;;5065612;28;19996;-56
2022/06/13 03:08:46;;;;;;;;;;;9.60;99.90;;;;;;5058892;28;19919;-57
2022/06/13 03:11:31;;;;;;;;;;;9.70;99.90;;;;;;5067332;28;20364;-56
2022/06/13 03:13:56;;;;;;;;;;;9.70;99.90;;;;;;5057806;28;19913;-57
2022/06/13 03:16:29;;;;;;;;;;;9.80;99.90;;;;;;5071861;28;19995;-57
2022/06/13 03:19:02;;;;;;;;;;;9.80;99.90;;;;;;5062193;28;19999;-57
2022/06/13 03:21:34;;;;;;;;;;;9.80;99.90;;;;;;5061731;28;19913;-56
2022/06/13 03:24:11;;;;;;;;;;;9.90;99.90;;;;;;5064158;28;20364;-56
2022/06/13 03:26:41;;;;;;;;;;;10.00;99.90;;;;;;5065574;28;19912;-56
2022/06/13 03:29:25;;;;;;;;;;;10.40;99.90;;;;;;5062270;28;19909;-57
2022/06/13 03:31:53;;;;;;;;;;;10.50;99.90;;;;;;5060475;28;19990;-57
2022/06/13 03:34:21;;;;;;;;;;;10.80;99.90;;;;;;5062756;28;19928;-56
2022/06/13 03:36:53;;;;;;;;;;;10.70;99.90;;;;;;5061253;28;19956;-56
2022/06/13 03:39:18;;;;;;;;;;;10.70;99.90;;;;;;5064876;28;20018;-57
2022/06/13 03:41:50;;;;;;;;;;;10.70;99.90;;;;;;5057205;28;19916;-57
2022/06/13 03:44:21;;;;;;;;;;;10.80;99.90;;;;;;5062876;28;19917;-56
2022/06/13 03:46:58;;;;;;;;;;;10.90;99.90;;;;;;5055785;28;19966;-57
2022/06/13 03:49:26;;;;;;;;;;;10.90;99.90;;;;;;5061254;28;20352;-57
2022/06/13 03:51:53;;;;;;;;;;;11.00;99.90;;;;;;5061032;28;19921;-56
2022/06/13 03:54:27;;;;;;;;;;;11.00;99.90;;;;;;5066385;28;19916;-57
2022/06/13 03:57:00;;;;;;;;;;;11.10;99.90;;;;;;5063847;28;20003;-57
2022/06/13 03:59:30;;;;;;;;;;;11.10;99.90;;;;;;5055474;28;20441;-57
2022/06/13 04:02:01;;;;;;;;;;;11.10;99.90;;;;;;5061596;28;19920;-57
2022/06/13 04:04:33;;;;;;;;;;;11.30;99.90;;;;;;5064185;28;20411;-57
2022/06/13 04:07:01;;;;;;;;;;;11.30;99.90;;;;;;5057722;28;19908;-57
2022/06/13 04:09:46;;;;;;;;;;;11.40;99.90;;;;;;5063110;28;20360;-57
2022/06/13 04:12:21;;;;;;;;;;;11.40;99.90;;;;;;5063335;28;20356;-56
2022/06/13 04:14:52;;;;;;;;;;;11.50;99.90;;;;;;5065472;28;19916;-57
2022/06/13 04:17:30;;;;;;;;;;;11.70;99.90;;;;;;5064906;28;20447;-56
2022/06/13 04:20:02;;;;;;;;;;;11.70;99.90;;;;;;5064414;28;19912;-56
2022/06/13 04:22:47;;;;;;;;;;;11.70;99.90;;;;;;5058223;28;19916;-56
2022/06/13 04:25:31;;;;;;;;;;;12.10;99.90;;;;;;5056305;28;19917;-56
2022/06/13 04:28:10;;;;;;;;;;;12.20;99.90;;;;;;5058847;28;19912;-56
2022/06/13 04:30:36;;;;;;;;;;;12.20;99.90;;;;;;5062841;28;19920;-57
2022/06/13 04:33:22;;;;;;;;;;;12.30;99.90;;;;;;5062695;28;19913;-56
2022/06/13 04:35:48;;;;;;;;;;;12.30;99.90;;;;;;5053392;28;20673;-56
2022/06/13 04:38:15;;;;;;;;;;;12.30;99.90;;;;;;5060388;28;19913;-57
2022/06/13 04:40:44;;;;;;;;;;;12.30;99.90;;;;;;5053952;28;19952;-56
2022/06/13 04:43:15;;;;;;;;;;;12.40;99.90;;;;;;5051219;28;19917;-57
2022/06/13 04:45:52;;;;;;;;;;;12.50;99.90;;;;;;5053754;28;19909;-57
2022/06/13 04:48:18;;;;;;;;;;;12.50;99.90;;;;;;5062495;28;19916;-56
2022/06/13 04:50:46;;;;;;;;;;;12.60;99.90;;;;;;5056492;28;19974;-56
2022/06/13 04:53:20;;;;;;;;;;;12.80;99.90;;;;;;5050060;28;20322;-56
2022/06/13 04:55:47;;;;;;;;;;;12.80;99.90;;;;;;5055180;28;19924;-57
2022/06/13 04:58:24;;;;;;;;;;;12.80;99.90;;;;;;5049677;28;20435;-56
2022/06/13 05:00:52;;;;;;;;;;;12.90;99.90;;;;;;5051367;28;19980;-57
2022/06/13 05:03:23;;;;;;;;;;;13.00;99.90;;;;;;5060762;28;19917;-56
2022/06/13 05:05:53;;;;;;;;;;;13.10;99.90;;;;;;5054380;28;19924;-57
2022/06/13 05:08:21;;;;;;;;;;;13.20;99.90;;;;;;5057992;28;20011;-56
2022/06/13 05:10:47;;;;;;;;;;;13.50;99.90;;;;;;5057440;28;19948;-57
2022/06/13 05:13:13;;;;;;;;;;;13.70;99.90;;;;;;5059496;28;19912;-56
2022/06/13 05:15:38;;;;;;;;;;;13.70;99.90;;;;;;5051798;28;20368;-56
2022/06/13 05:18:07;;;;;;;;;;;13.70;99.90;;;;;;5050546;28;19919;-56
2022/06/13 05:20:39;;;;;;;;;;;13.70;99.90;;;;;;5053883;28;19913;-56
2022/06/13 05:23:08;;;;;;;;;;;13.30;99.90;;;;;;5050944;28;20288;-57
2022/06/13 05:25:36;;;;;;;;;;;13.10;99.90;;;;;;5054863;28;20019;-56
2022/06/13 05:28:02;;;;;;;;;;;12.90;99.90;;;;;;5065114;28;19946;-56
2022/06/13 05:30:28;;;;;;;;;;;13.00;99.90;;;;;;5059191;28;19999;-56
2022/06/13 05:32:54;;;;;;;;;;;13.20;99.90;;;;;;5051417;28;19928;-57
2022/06/13 05:35:22;;;;;;;;;;;13.10;99.90;;;;;;5050324;28;19929;-56
2022/06/13 05:37:48;;;;;;;;;;;13.10;99.90;;;;;;5055780;28;19944;-56
2022/06/13 05:40:15;;;;;;;;;;;13.00;99.90;;;;;;5059637;28;19922;-56
2022/06/13 05:42:40;;;;;;;;;;;13.10;99.90;;;;;;5053734;28;20365;-56
2022/06/13 05:45:06;;;;;;;;;;;12.90;99.90;;;;;;5054641;28;19935;-56
2022/06/13 05:47:31;;;;;;;;;;;12.90;99.90;;;;;;5052292;28;20741;-57
2022/06/13 05:49:57;;;;;;;;;;;13.00;99.90;;;;;;5058318;28;20058;-56
2022/06/13 05:52:22;;;;;;;;;;;13.00;99.90;;;;;;5054910;28;20042;-57
2022/06/13 05:54:48;;;;;;;;;;;13.00;99.90;;;;;;5050574;28;20755;-56
2022/06/13 05:57:16;;;;;;;;;;;13.00;99.90;;;;;;5054284;28;19969;-56
2022/06/13 05:59:41;;;;;;;;;;;13.00;99.90;;;;;;5061451;28;20340;-57
2022/06/13 06:02:09;;;;;;;;;;;12.90;99.90;;;;;;5054382;28;19913;-56
2022/06/13 06:04:34;;;;;;;;;;;13.00;99.90;;;;;;5058150;28;19920;-57
2022/06/13 06:06:59;;;;;;;;;;;13.00;99.90;;;;;;5058118;28;19917;-57
2022/06/13 06:09:25;;;;;;;;;;;12.90;99.90;;;;;;5062820;28;19924;-56
2022/06/13 06:11:50;;;;;;;;;;;13.00;99.90;;;;;;5058530;28;19920;-57
2022/06/13 06:14:16;;;;;;;;;;;12.90;99.90;;;;;;5066822;28;19928;-56
2022/06/13 06:16:42;;;;;;;;;;;13.10;99.90;;;;;;5052059;28;19917;-56
2022/06/13 06:19:07;;;;;;;;;;;13.10;99.90;;;;;;5072590;28;19969;-56
2022/06/13 06:21:33;;;;;;;;;;;13.10;99.90;;;;;;5059706;28;19923;-57
2022/06/13 06:23:58;;;;;;;;;;;13.10;99.90;;;;;;5062038;28;19920;-57
2022/06/13 06:26:25;;;;;;;;;;;13.10;99.90;;;;;;5059906;28;20357;-56
2022/06/13 06:28:51;;;;;;;;;;;13.00;99.90;;;;;;5051549;28;19960;-56
2022/06/13 06:31:17;;;;;;;;;;;13.30;99.90;;;;;;5056811;28;20541;-56
2022/06/13 06:33:42;;;;;;;;;;;13.40;99.90;;;;;;5054339;28;19913;-56
2022/06/13 06:36:09;;;;;;;;;;;13.40;99.90;;;;;;5066537;28;20328;-56
2022/06/13 06:38:35;;;;;;;;;;;13.60;99.90;;;;;;5066944;28;19970;-57
2022/06/13 06:41:01;;;;;;;;;;;13.60;99.90;;;;;;5059000;28;19913;-56
2022/06/13 06:43:26;;;;;;;;;;;13.80;99.90;;;;;;5065353;28;19919;-57
2022/06/13 06:45:52;;;;;;;;;;;14.00;99.90;;;;;;5056675;28;20543;-57
2022/06/13 06:48:18;;;;;;;;;;;14.20;99.90;;;;;;5058303;28;19908;-57
2022/06/13 06:50:46;;;;;;;;;;;14.30;99.90;;;;;;5069829;28;20368;-56
2022/06/13 06:53:12;;;;;;;;;;;14.20;99.90;;;;;;5055515;28;20007;-56
2022/06/13 07:01:15;;;;;;;;;;;14.30;99.90;;;;;;5038284;28;19948;-56
2022/06/13 07:03:41;;;;;;;;;;;14.40;99.90;;;;;;5058390;28;19988;-56
2022/06/13 07:06:07;;;;;;;;;;;14.40;99.90;;;;;;5056268;28;19955;-57
2022/06/13 07:08:33;;;;;;;;;;;14.40;99.90;;;;;;5053191;28;19951;-56
2022/06/13 07:11:53;;;;;;;;;;;14.50;99.90;;;;;;5058113;28;19973;-56
2022/06/13 07:13:44;;;;;;;;;;;14.50;99.90;;;;;;5056737;28;19912;-56
2022/06/13 07:16:10;;;;;;;;;;;14.60;99.90;;;;;;5057279;28;19916;-56
2022/06/13 07:18:36;;;;;;;;;;;14.70;99.90;;;;;;5055305;28;20388;-56
2022/06/13 07:21:01;;;;;;;;;;;15.00;99.90;;;;;;5056700;28;19912;-56
2022/06/13 07:23:27;;;;;;;;;;;15.10;99.90;;;;;;5054089;28;20371;-56
2022/06/13 07:25:52;;;;;;;;;;;15.40;99.90;;;;;;5058755;28;19913;-56
2022/06/13 07:28:18;;;;;;;;;;;15.60;99.90;;;;;;5057100;28;19943;-56
2022/06/13 07:30:43;;;;;;;;;;;15.90;99.90;;;;;;5063971;28;19940;-57
2022/06/13 07:33:09;;;;;;;;;;;16.20;99.90;;;;;;5057491;28;19909;-56
2022/06/13 07:35:34;;;;;;;;;;;16.30;99.90;;;;;;5055358;28;19925;-57
2022/06/13 07:38:18;;;;;;;;;;;16.40;99.90;;;;;;5059621;28;20363;-57
2022/06/13 07:40:48;;;;;;;;;;;16.20;99.90;;;;;;5057574;28;19973;-57
2022/06/13 07:43:23;;;;;;;;;;;15.80;99.90;;;;;;5053819;28;20390;-56
2022/06/13 07:45:48;;;;;;;;;;;15.70;99.90;;;;;;5059432;28;20384;-56
2022/06/13 07:48:14;;;;;;;;;;;15.80;99.90;;;;;;5057886;28;19939;-57
2022/06/13 07:50:40;;;;;;;;;;;15.90;99.90;;;;;;5052047;28;19970;-57
2022/06/13 07:53:05;;;;;;;;;;;16.50;99.90;;;;;;5054755;28;20265;-56
2022/06/13 07:55:32;;;;;;;;;;;16.40;99.90;;;;;;5057015;28;20402;-56
2022/06/13 07:57:58;;;;;;;;;;;16.70;99.90;;;;;;5052511;28;19956;-56
2022/06/13 08:00:25;;;;;;;;;;;17.10;99.90;;;;;;5057767;28;20329;-57
2022/06/13 08:02:53;;;;;;;;;;;17.40;99.90;;;;;;5054910;28;19912;-57
2022/06/13 08:05:19;;;;;;;;;;;17.50;99.90;;;;;;5065365;28;19916;-56
2022/06/13 08:07:44;;;;;;;;;;;17.40;99.90;;;;;;5054342;28;19923;-56
2022/06/13 08:10:10;;;;;;;;;;;17.50;99.90;;;;;;5059589;28;19923;-57
2022/06/13 08:12:36;;;;;;;;;;;17.20;99.90;;;;;;5055703;28;19955;-57
2022/06/13 08:15:02;;;;;;;;;;;17.30;99.90;;;;;;5071680;28;19921;-56
2022/06/13 08:17:28;;;;;;;;;;;17.50;99.90;;;;;;5059397;28;20360;-56
2022/06/13 08:19:53;;;;;;;;;;;17.70;99.90;;;;;;5058465;28;20031;-56
2022/06/13 08:22:20;;;;;;;;;;;17.90;99.90;;;;;;5057337;28;19912;-56
2022/06/13 08:24:45;;;;;;;;;;;17.90;99.90;;;;;;5052383;28;19919;-56
2022/06/13 08:27:11;;;;;;;;;;;17.70;99.90;;;;;;5056621;28;19912;-56
2022/06/13 08:29:36;;;;;;;;;;;17.80;99.90;;;;;;5052905;28;19921;-56
2022/06/13 08:32:02;;;;;;;;;;;18.00;99.90;;;;;;5054563;28;19975;-57
2022/06/13 08:34:28;;;;;;;;;;;17.60;99.90;;;;;;5057548;28;20378;-57
2022/06/13 08:36:53;;;;;;;;;;;17.80;99.90;;;;;;5055847;28;20894;-56
2022/06/13 08:39:20;;;;;;;;;;;17.80;99.90;;;;;;5054312;28;20265;-56
2022/06/13 08:41:57;;;;;;;;;;;17.80;99.90;;;;;;5055782;28;20012;-57
2022/06/13 08:44:38;;;;;;;;;;;17.70;99.90;;;;;;5056361;28;19913;-57
2022/06/13 08:47:13;;;;;;;;;;;18.00;99.90;;;;;;5060126;28;19913;-57
2022/06/13 08:49:43;;;;;;;;;;;19.00;99.90;;;;;;5055975;28;19908;-57
2022/06/13 08:52:27;;;;;;;;;;;19.10;99.90;;;;;;5060704;28;20074;-57
2022/06/13 08:54:55;;;;;;;;;;;18.30;99.90;;;;;;5057705;28;20309;-56
2022/06/13 08:57:24;;;;;;;;;;;18.30;99.90;;;;;;5061790;28;19912;-57
2022/06/13 08:59:52;;;;;;;;;;;18.00;99.90;;;;;;5065652;28;19913;-57
2022/06/13 09:02:20;;;;;;;;;;;18.40;99.90;;;;;;5059497;28;20756;-56
2022/06/13 09:04:58;;;;;;;;;;;18.90;99.90;;;;;;5054648;28;19927;-56
2022/06/13 09:07:23;;;;;;;;;;;18.90;99.90;;;;;;5057172;28;19912;-56
2022/06/13 09:10:08;;;;;;;;;;;18.80;99.90;;;;;;5054823;28;19970;-62
2022/06/13 09:12:33;;;;;;;;;;;18.60;99.90;;;;;;5055230;28;20732;-57
2022/06/13 09:15:05;;;;;;;;;;;18.30;99.90;;;;;;5057014;28;19917;-56
2022/06/13 09:17:41;;;;;;;;;;;18.80;99.90;;;;;;5060304;28;19913;-57
2022/06/13 09:20:12;;;;;;;;;;;19.20;99.90;;;;;;5061228;28;20011;-57
2022/06/13 09:22:37;;;;;;;;;;;18.90;99.90;;;;;;5056358;28;19913;-56
2022/06/13 09:25:08;;;;;;;;;;;18.80;99.90;;;;;;5051620;28;19913;-56
2022/06/13 09:27:37;;;;;;;;;;;18.80;99.90;;;;;;5053171;28;20284;-56
2022/06/13 09:30:09;;;;;;;;;;;19.50;99.90;;;;;;5053435;28;20007;-57
2022/06/13 09:32:39;;;;;;;;;;;19.00;99.90;;;;;;5059675;28;20402;-56
2022/06/13 09:35:24;;;;;;;;;;;18.30;99.90;;;;;;5059749;28;19929;-57
2022/06/13 09:37:56;;;;;;;;;;;17.90;99.90;;;;;;5058638;28;19913;-56
2022/06/13 09:40:27;;;;;;;;;;;17.60;99.90;;;;;;5054916;28;19916;-57
2022/06/13 09:43:11;;;;;;;;;;;17.70;99.90;;;;;;5056374;28;19921;-57
2022/06/13 09:45:46;;;;;;;;;;;18.10;99.90;;;;;;5051955;28;20261;-56
2022/06/13 09:48:25;;;;;;;;;;;19.10;99.90;;;;;;5056841;28;20383;-57
2022/06/13 09:50:51;;;;;;;;;;;19.40;99.90;;;;;;5051935;28;19998;-57
2022/06/13 09:53:19;;;;;;;;;;;19.80;99.90;;;;;;5052432;28;19986;-56
2022/06/13 09:55:47;;;;;;;;;;;20.80;99.90;;;;;;5055135;28;19942;-57
2022/06/13 09:58:33;;;;;;;;;;;20.10;99.90;;;;;;5052546;28;19970;-56
2022/06/13 10:01:04;;;;;;;;;;;19.20;99.90;;;;;;5054066;28;19913;-57
2022/06/13 10:03:33;;;;;;;;;;;18.70;99.90;;;;;;5056532;28;19909;-56
2022/06/13 10:06:09;;;;;;;;;;;18.30;99.90;;;;;;5051025;28;20382;-57
2022/06/13 10:08:53;;;;;;;;;;;18.50;99.90;;;;;;5051875;28;19948;-57
2022/06/13 10:11:40;;;;;;;;;;;19.70;99.90;;;;;;5052807;28;19920;-57
2022/06/13 10:14:16;;;;;;;;;;;20.80;99.90;;;;;;5062238;28;19916;-57
2022/06/13 10:16:54;;;;;;;;;;;21.80;99.90;;;;;;5053262;28;20008;-57
2022/06/13 10:19:20;;;;;;;;;;;22.30;99.80;;;;;;5058292;28;19920;-57
2022/06/13 10:21:52;;;;;;;;;;;21.10;99.30;;;;;;5052378;28;19909;-57
2022/06/13 10:24:22;;;;;;;;;;;20.40;99.70;;;;;;5056687;28;19919;-57
2022/06/13 10:26:48;;;;;;;;;;;19.40;99.90;;;;;;5048962;28;19916;-56
2022/06/13 10:29:31;;;;;;;;;;;19.00;99.90;;;;;;5062600;28;19919;-57
2022/06/13 10:32:06;;;;;;;;;;;19.60;99.90;;;;;;5053890;28;19916;-57
2022/06/13 10:34:34;;;;;;;;;;;21.20;98.80;;;;;;5058265;28;20391;-56
2022/06/13 10:37:10;;;;;;;;;;;21.90;96.90;;;;;;5055310;28;19913;-57
2022/06/13 10:39:36;;;;;;;;;;;22.50;95.70;;;;;;5056902;28;19920;-57
2022/06/13 10:42:07;;;;;;;;;;;22.00;94.50;;;;;;5054411;28;20263;-56
2022/06/13 10:44:33;;;;;;;;;;;22.60;94.00;;;;;;5054670;28;20310;-56
2022/06/13 10:47:02;;;;;;;;;;;21.90;92.60;;;;;;5050850;28;19913;-57
2022/06/13 10:49:28;;;;;;;;;;;22.00;92.10;;;;;;5059717;28;19920;-57
2022/06/13 10:51:59;;;;;;;;;;;22.80;91.80;;;;;;5058865;28;19912;-57
2022/06/13 10:54:29;;;;;;;;;;;23.90;87.50;;;;;;5056226;28;20019;-57
2022/06/13 10:57:03;;;;;;;;;;;23.50;86.20;;;;;;5064596;28;19913;-56
2022/06/13 10:59:33;;;;;;;;;;;21.60;89.20;;;;;;5057041;28;19966;-56
2022/06/13 11:02:03;;;;;;;;;;;20.70;91.20;;;;;;5058778;28;20378;-57
2022/06/13 11:04:35;;;;;;;;;;;19.70;92.20;;;;;;5055254;28;20016;-56
2022/06/13 11:07:03;;;;;;;;;;;21.30;91.90;;;;;;5058834;28;19955;-56
2022/06/13 11:09:28;;;;;;;;;;;21.80;90.80;;;;;;5054704;28;20361;-56
2022/06/13 11:11:55;;;;;;;;;;;21.20;90.90;;;;;;5057335;28;19924;-56
2022/06/13 11:14:26;;;;;;;;;;;20.50;91.70;;;;;;5059302;28;19994;-56
2022/06/13 11:22:37;;;;;;;;;;;19.80;92.40;;;;;;5057922;28;19919;-57
2022/06/13 11:22:37;;;;;;;;;;;19.60;93.00;;;;;;5053411;28;19932;-56
2022/06/13 11:25:24;;;;;;;;;;;20.20;91.90;;;;;;5053506;28;19970;-56
2022/06/13 11:28:00;;;;;;;;;;;21.70;89.90;;;;;;5054067;28;19912;-56
2022/06/13 11:30:29;;;;;;;;;;;22.30;87.90;;;;;;5057585;28;19916;-57
2022/06/13 11:32:59;;;;;;;;;;;23.60;86.80;;;;;;5055281;28;19920;-57
2022/06/13 11:35:29;;;;;;;;;;;22.80;81.90;;;;;;5062441;28;19932;-56
2022/06/13 11:37:55;;;;;;;;;;;21.70;86.50;;;;;;5060030;28;19913;-57
2022/06/13 11:40:24;;;;;;;;;;;21.50;86.40;;;;;;5053282;28;19986;-57
2022/06/13 11:42:51;;;;;;;;;;;21.10;86.70;;;;;;5055178;28;19912;-56
2022/06/13 11:45:20;;;;;;;;;;;20.60;90.00;;;;;;5056766;28;19916;-56
2022/06/13 11:47:49;;;;;;;;;;;20.50;90.80;;;;;;5057716;28;19975;-56
2022/06/13 11:50:23;;;;;;;;;;;21.10;90.40;;;;;;5055415;28;19913;-57
2022/06/13 11:55:39;;;;;;;;;;;21.80;86.50;;;;;;5059823;28;19939;-57
2022/06/13 11:58:05;;;;;;;;;;;22.70;86.50;;;;;;5057201;28;19983;-56
2022/06/13 12:00:32;;;;;;;;;;;23.40;81.00;;;;;;5054783;28;20008;-56
2022/06/13 12:03:14;;;;;;;;;;;23.70;77.30;;;;;;5055679;28;20349;-56
2022/06/13 12:05:40;;;;;;;;;;;23.10;77.80;;;;;;5057034;28;19921;-57
2022/06/13 12:08:14;;;;;;;;;;;22.70;82.70;;;;;;5053366;28;19913;-56
2022/06/13 12:10:41;;;;;;;;;;;21.80;86.40;;;;;;5059254;28;19912;-56
2022/06/13 12:13:16;;;;;;;;;;;22.00;86.40;;;;;;5055759;28;20300;-57
2022/06/13 12:15:51;;;;;;;;;;;22.00;86.60;;;;;;5059229;28;19938;-56
2022/06/13 12:18:23;;;;;;;;;;;22.00;86.10;;;;;;5063926;28;20252;-56
2022/06/13 12:20:58;;;;;;;;;;;22.20;84.80;;;;;;5055258;28;20051;-57
2022/06/13 12:23:43;;;;;;;;;;;23.90;83.90;;;;;;5051132;28;19971;-56
2022/06/13 12:26:24;;;;;;;;;;;24.10;80.40;;;;;;5055137;28;19920;-56
2022/06/13 12:28:50;;;;;;;;;;;23.10;80.90;;;;;;5055139;28;19919;-56
2022/06/13 12:31:28;;;;;;;;;;;22.70;82.20;;;;;;5056148;28;19909;-57
2022/06/13 12:33:53;;;;;;;;;;;23.70;82.10;;;;;;5054572;28;20305;-56
2022/06/13 12:36:28;;;;;;;;;;;22.90;80.40;;;;;;5054183;28;19925;-56
2022/06/13 12:38:53;;;;;;;;;;;22.00;80.60;;;;;;5055172;28;19912;-57
2022/06/13 12:41:19;;;;;;;;;;;21.50;82.70;;;;;;5054970;28;20372;-57
2022/06/13 12:43:50;;;;;;;;;;;20.90;83.50;;;;;;5055525;28;19978;-57
2022/06/13 12:46:23;;;;;;;;;;;20.50;86.40;;;;;;5057728;28;19912;-57
2022/06/13 12:48:58;;;;;;;;;;;20.40;86.40;;;;;;5054912;28;19936;-56
2022/06/13 12:51:42;;;;;;;;;;;20.10;86.00;;;;;;5054237;28;19920;-56
2022/06/13 12:54:26;;;;;;;;;;;20.00;86.80;;;;;;5055056;28;19920;-56
2022/06/13 12:57:04;;;;;;;;;;;20.60;86.30;;;;;;5064964;28;19954;-57
2022/06/13 12:59:42;;;;;;;;;;;21.00;86.10;;;;;;5055723;28;19913;-56
2022/06/13 13:02:26;;;;;;;;;;;21.90;82.20;;;;;;5053231;28;19916;-56
2022/06/13 13:04:54;;;;;;;;;;;23.20;80.20;;;;;;5054178;28;19917;-57
2022/06/13 13:07:44;;;;;;;;;;;24.70;77.30;;;;;;5054065;28;19967;-57
2022/06/13 13:10:22;;;;;;;;;;;25.00;76.60;;;;;;5055569;28;19999;-56
2022/06/13 13:12:54;;;;;;;;;;;24.90;74.20;;;;;;5058157;28;19912;-56
2022/06/13 13:15:36;;;;;;;;;;;24.90;74.90;;;;;;5056111;28;19917;-57
2022/06/13 13:18:10;;;;;;;;;;;24.20;72.70;;;;;;5059348;28;19913;-56
2022/06/13 13:20:44;;;;;;;;;;;23.90;72.00;;;;;;5052973;28;19927;-56
2022/06/13 13:23:18;;;;;;;;;;;23.70;73.10;;;;;;5049613;28;20041;-56
2022/06/13 13:25:51;;;;;;;;;;;23.30;73.60;;;;;;5051660;28;19923;-56
2022/06/13 13:28:35;;;;;;;;;;;22.90;74.00;;;;;;5051844;28;19912;-56
2022/06/13 13:31:07;;;;;;;;;;;22.00;76.50;;;;;;5053734;28;19944;-56
2022/06/13 13:33:51;;;;;;;;;;;21.70;79.10;;;;;;5053109;28;20385;-56
2022/06/13 13:36:35;;;;;;;;;;;21.10;79.70;;;;;;5054474;28;19947;-57
2022/06/13 13:39:10;;;;;;;;;;;20.60;81.00;;;;;;5060007;28;19959;-56
2022/06/13 13:41:49;;;;;;;;;;;21.10;81.20;;;;;;5054108;28;19912;-56
2022/06/13 13:44:25;;;;;;;;;;;22.80;76.10;;;;;;5050908;28;19962;-56
2022/06/13 13:47:09;;;;;;;;;;;24.00;72.90;;;;;;5053232;28;20334;-56
2022/06/13 13:50:02;;;;;;;;;;;24.70;71.40;;;;;;5050708;28;20045;-57
2022/06/13 13:52:38;;;;;;;;;;;26.00;70.30;;;;;;5051155;28;19931;-57
2022/06/13 13:55:12;;;;;;;;;;;25.60;70.40;;;;;;5051551;28;20004;-56
2022/06/13 13:57:43;;;;;;;;;;;24.50;73.80;;;;;;5055551;28;20279;-56
2022/06/13 14:00:27;;;;;;;;;;;22.90;74.80;;;;;;5052941;28;19909;-56
2022/06/13 14:03:11;;;;;;;;;;;23.20;76.80;;;;;;5052856;28;19917;-57
2022/06/13 14:05:37;;;;;;;;;;;24.20;74.00;;;;;;5050323;28;20340;-57
2022/06/13 14:08:07;;;;;;;;;;;24.70;72.60;;;;;;5053213;28;19921;-56
2022/06/13 14:10:35;;;;;;;;;;;24.70;72.00;;;;;;5054697;28;19916;-56
2022/06/13 14:13:00;;;;;;;;;;;24.50;70.80;;;;;;5058266;28;19920;-57
2022/06/13 14:15:34;;;;;;;;;;;25.40;69.80;;;;;;5056069;28;19912;-56
2022/06/13 14:18:01;;;;;;;;;;;25.20;68.30;;;;;;5060704;28;19948;-56
2022/06/13 14:20:28;;;;;;;;;;;24.90;70.40;;;;;;5068050;28;19924;-57
2022/06/13 14:23:01;;;;;;;;;;;25.50;68.60;;;;;;5058628;28;19912;-57
2022/06/13 14:25:35;;;;;;;;;;;25.70;69.40;;;;;;5059054;28;19931;-57
2022/06/13 14:28:04;;;;;;;;;;;27.30;66.20;;;;;;5065268;28;20352;-56
2022/06/13 14:35:11;;;;;;;;;;;25.90;67.00;;;;;;5056289;28;19919;-57
2022/06/13 14:36:02;;;;;;;;;;;26.50;66.10;;;;;;5057788;28;20007;-57
2022/06/13 14:38:39;;;;;;;;;;;26.10;66.70;;;;;;5058071;28;19952;-57
2022/06/13 14:41:13;;;;;;;;;;;27.40;65.20;;;;;;5059296;28;20022;-56
2022/06/13 14:43:59;;;;;;;;;;;26.00;64.60;;;;;;5058084;28;19924;-57
2022/06/13 14:46:30;;;;;;;;;;;25.50;65.20;;;;;;5061348;28;19909;-57
2022/06/13 14:49:08;;;;;;;;;;;26.30;65.90;;;;;;5057584;28;20378;-56
2022/06/13 14:51:53;;;;;;;;;;;24.80;65.60;;;;;;5056375;28;19913;-56
2022/06/13 14:54:38;;;;;;;;;;;23.90;68.50;;;;;;5057638;28;19916;-56